sensor_id;sensor_type;location;lat;lon;timestamp;temperature;humidity
15087;DHT22;7642;48.478;8.952;2022-08-16T00:00:12;17.30;99.90
15087;DHT22;7642;48.478;8.952;2022-08-16T00:02:38;17.20;99.90
15087;DHT22;7642;48.478;8.952;2022-08-16T00:05:06;17.50;99.90
15087;DHT22;7642;48.478;8.952;2022-08-16T00:07:32;17.20;99.90
15087;DHT22;7642;48.478;8.952;2022-08-16T00:09:58;17.30;99.90
15087;DHT22;7642;48.478;8.952;2022-08-16T00:12:26;17.10;99.90
15087;DHT22;7642;48.478;8.952;2022-08-16T00:14:53;17.10;99.90
15087;DHT22;7642;48.478;8.952;2022-08-16T00:17:18;17.00;99.90
15087;DHT22;7642;48.478;8.952;2022-08-16T00:19:44;17.10;99.90
15087;DHT22;7642;48.478;8.952;2022-08-16T00:22:10;17.20;99.90
15087;DHT22;7642;48.478;8.952;2022-08-16T00:24:36;16.70;99.90
15087;DHT22;7642;48.478;8.952;2022-08-16T00:27:02;16.70;99.90
15087;DHT22;7642;48.478;8.952;2022-08-16T00:29:28;16.70;99.90
15087;DHT22;7642;48.478;8.952;2022-08-16T00:31:54;16.80;99.90
15087;DHT22;7642;48.478;8.952;2022-08-16T00:34:21;16.70;99.90
15087;DHT22;7642;48.478;8.952;2022-08-16T00:36:47;16.70;99.90
15087;DHT22;7642;48.478;8.952;2022-08-16T00:39:14;16.70;99.90
15087;DHT22;7642;48.478;8.952;2022-08-16T00:41:40;16.70;99.90
15087;DHT22;7642;48.478;8.952;2022-08-16T00:44:07;16.80;99.90
15087;DHT22;7642;48.478;8.952;2022-08-16T00:46:53;16.70;99.90
15087;DHT22;7642;48.478;8.952;2022-08-16T00:49:21;16.70;99.90
15087;DHT22;7642;48.478;8.952;2022-08-16T00:51:49;16.80;99.90
15087;DHT22;7642;48.478;8.952;2022-08-16T00:54:15;17.00;99.90
15087;DHT22;7642;48.478;8.952;2022-08-16T00:56:43;16.70;99.90
15087;DHT22;7642;48.478;8.952;2022-08-16T00:59:12;16.70;99.90
15087;DHT22;7642;48.478;8.952;2022-08-16T01:01:39;16.70;99.90
15087;DHT22;7642;48.478;8.952;2022-08-16T01:04:05;16.70;99.90
15087;DHT22;7642;48.478;8.952;2022-08-16T01:06:32;16.80;99.90
15087;DHT22;7642;48.478;8.952;2022-08-16T01:09:00;17.10;99.90
15087;DHT22;7642;48.478;8.952;2022-08-16T01:11:30;16.60;99.90
15087;DHT22;7642;48.478;8.952;2022-08-16T01:14:03;16.50;99.90
15087;DHT22;7642;48.478;8.952;2022-08-16T01:16:30;16.30;99.90
15087;DHT22;7642;48.478;8.952;2022-08-16T01:19:00;16.30;99.90
15087;DHT22;7642;48.478;8.952;2022-08-16T01:27:06;16.30;99.90
15087;DHT22;7642;48.478;8.952;2022-08-16T01:29:55;16.20;99.90
15087;DHT22;7642;48.478;8.952;2022-08-16T01:32:21;16.10;99.90
15087;DHT22;7642;48.478;8.952;2022-08-16T01:34:47;16.10;99.90
15087;DHT22;7642;48.478;8.952;2022-08-16T01:37:13;16.10;99.90
15087;DHT22;7642;48.478;8.952;2022-08-16T01:39:40;16.10;99.90
15087;DHT22;7642;48.478;8.952;2022-08-16T01:42:07;16.50;99.90
15087;DHT22;7642;48.478;8.952;2022-08-16T01:44:34;16.10;99.90
15087;DHT22;7642;48.478;8.952;2022-08-16T01:47:00;16.10;99.90
15087;DHT22;7642;48.478;8.952;2022-08-16T01:49:31;16.10;99.90
15087;DHT22;7642;48.478;8.952;2022-08-16T01:52:11;16.00;99.90
15087;DHT22;7642;48.478;8.952;2022-08-16T01:54:38;16.00;99.90
15087;DHT22;7642;48.478;8.952;2022-08-16T01:57:05;15.90;99.90
15087;DHT22;7642;48.478;8.952;2022-08-16T01:59:31;15.80;99.90
15087;DHT22;7642;48.478;8.952;2022-08-16T02:01:57;15.80;99.90
15087;DHT22;7642;48.478;8.952;2022-08-16T02:04:24;15.80;99.90
15087;DHT22;7642;48.478;8.952;2022-08-16T02:06:50;15.80;99.90
15087;DHT22;7642;48.478;8.952;2022-08-16T02:09:21;16.20;99.90
15087;DHT22;7642;48.478;8.952;2022-08-16T02:11:51;15.70;99.90
15087;DHT22;7642;48.478;8.952;2022-08-16T02:14:17;15.80;99.90
15087;DHT22;7642;48.478;8.952;2022-08-16T02:16:42;15.60;99.90
15087;DHT22;7642;48.478;8.952;2022-08-16T02:19:10;15.60;99.90
15087;DHT22;7642;48.478;8.952;2022-08-16T02:21:36;15.50;99.90
15087;DHT22;7642;48.478;8.952;2022-08-16T02:24:02;15.60;99.90
15087;DHT22;7642;48.478;8.952;2022-08-16T02:26:27;15.60;99.90
15087;DHT22;7642;48.478;8.952;2022-08-16T02:28:54;15.70;99.90
15087;DHT22;7642;48.478;8.952;2022-08-16T02:31:19;15.80;99.90
15087;DHT22;7642;48.478;8.952;2022-08-16T02:33:45;15.70;99.90
15087;DHT22;7642;48.478;8.952;2022-08-16T02:36:12;15.70;99.90
15087;DHT22;7642;48.478;8.952;2022-08-16T02:38:38;15.70;99.90
15087;DHT22;7642;48.478;8.952;2022-08-16T02:41:06;15.70;99.90
15087;DHT22;7642;48.478;8.952;2022-08-16T02:43:33;15.70;99.90
15087;DHT22;7642;48.478;8.952;2022-08-16T02:46:00;15.80;99.90
15087;DHT22;7642;48.478;8.952;2022-08-16T02:48:26;15.80;99.90
15087;DHT22;7642;48.478;8.952;2022-08-16T02:50:52;15.90;99.90
15087;DHT22;7642;48.478;8.952;2022-08-16T02:53:18;15.80;99.90
15087;DHT22;7642;48.478;8.952;2022-08-16T02:55:43;15.80;99.90
15087;DHT22;7642;48.478;8.952;2022-08-16T02:58:09;15.70;99.90
15087;DHT22;7642;48.478;8.952;2022-08-16T03:00:36;15.70;99.90
15087;DHT22;7642;48.478;8.952;2022-08-16T03:03:01;15.70;99.90
15087;DHT22;7642;48.478;8.952;2022-08-16T03:05:27;15.70;99.90
15087;DHT22;7642;48.478;8.952;2022-08-16T03:07:53;15.60;99.90
15087;DHT22;7642;48.478;8.952;2022-08-16T03:10:19;15.60;99.90
15087;DHT22;7642;48.478;8.952;2022-08-16T03:12:45;15.60;99.90
15087;DHT22;7642;48.478;8.952;2022-08-16T03:15:12;15.70;99.90
15087;DHT22;7642;48.478;8.952;2022-08-16T03:17:38;15.60;99.90
15087;DHT22;7642;48.478;8.952;2022-08-16T03:20:06;15.90;99.90
15087;DHT22;7642;48.478;8.952;2022-08-16T03:22:32;15.50;99.90
15087;DHT22;7642;48.478;8.952;2022-08-16T03:25:00;15.60;99.90
15087;DHT22;7642;48.478;8.952;2022-08-16T03:27:28;15.60;99.90
15087;DHT22;7642;48.478;8.952;2022-08-16T03:29:54;15.60;99.90
15087;DHT22;7642;48.478;8.952;2022-08-16T03:32:19;15.50;99.90
15087;DHT22;7642;48.478;8.952;2022-08-16T03:34:45;15.60;99.90
15087;DHT22;7642;48.478;8.952;2022-08-16T03:37:12;15.50;99.90
15087;DHT22;7642;48.478;8.952;2022-08-16T03:39:37;15.50;99.90
15087;DHT22;7642;48.478;8.952;2022-08-16T03:42:04;15.50;99.90
15087;DHT22;7642;48.478;8.952;2022-08-16T03:44:30;15.50;99.90
15087;DHT22;7642;48.478;8.952;2022-08-16T03:46:57;15.40;99.90
15087;DHT22;7642;48.478;8.952;2022-08-16T03:49:22;15.80;99.90
15087;DHT22;7642;48.478;8.952;2022-08-16T03:51:48;15.30;99.90
15087;DHT22;7642;48.478;8.952;2022-08-16T03:54:14;15.30;99.90
15087;DHT22;7642;48.478;8.952;2022-08-16T03:56:40;15.30;99.90
15087;DHT22;7642;48.478;8.952;2022-08-16T03:59:06;15.20;99.90
15087;DHT22;7642;48.478;8.952;2022-08-16T04:01:32;15.00;99.90
15087;DHT22;7642;48.478;8.952;2022-08-16T04:06:23;15.00;99.90
15087;DHT22;7642;48.478;8.952;2022-08-16T04:08:49;14.90;99.90
15087;DHT22;7642;48.478;8.952;2022-08-16T04:11:15;14.90;99.90
15087;DHT22;7642;48.478;8.952;2022-08-16T04:13:41;14.90;99.90
15087;DHT22;7642;48.478;8.952;2022-08-16T04:16:07;15.00;99.90
15087;DHT22;7642;48.478;8.952;2022-08-16T04:18:33;15.00;99.90
15087;DHT22;7642;48.478;8.952;2022-08-16T04:21:01;15.00;99.90
15087;DHT22;7642;48.478;8.952;2022-08-16T04:23:27;15.00;99.90
15087;DHT22;7642;48.478;8.952;2022-08-16T04:25:52;15.00;99.90
15087;DHT22;7642;48.478;8.952;2022-08-16T04:28:18;15.10;99.90
15087;DHT22;7642;48.478;8.952;2022-08-16T04:30:44;15.00;99.90
15087;DHT22;7642;48.478;8.952;2022-08-16T04:33:09;15.00;99.90
15087;DHT22;7642;48.478;8.952;2022-08-16T04:35:35;15.00;99.90
15087;DHT22;7642;48.478;8.952;2022-08-16T04:38:01;15.10;99.90
15087;DHT22;7642;48.478;8.952;2022-08-16T04:40:27;15.10;99.90
15087;DHT22;7642;48.478;8.952;2022-08-16T04:42:55;15.20;99.90
15087;DHT22;7642;48.478;8.952;2022-08-16T04:45:21;15.20;99.90
15087;DHT22;7642;48.478;8.952;2022-08-16T04:47:47;15.20;99.90
15087;DHT22;7642;48.478;8.952;2022-08-16T04:50:18;15.20;99.90
15087;DHT22;7642;48.478;8.952;2022-08-16T04:52:47;15.20;99.90
15087;DHT22;7642;48.478;8.952;2022-08-16T04:55:15;15.20;99.90
15087;DHT22;7642;48.478;8.952;2022-08-16T04:57:42;15.30;99.90
15087;DHT22;7642;48.478;8.952;2022-08-16T05:00:12;15.10;99.90
15087;DHT22;7642;48.478;8.952;2022-08-16T05:02:39;15.20;99.90
15087;DHT22;7642;48.478;8.952;2022-08-16T05:05:05;15.30;99.90
15087;DHT22;7642;48.478;8.952;2022-08-16T05:07:30;15.30;99.90
15087;DHT22;7642;48.478;8.952;2022-08-16T05:09:56;15.50;99.90
15087;DHT22;7642;48.478;8.952;2022-08-16T05:12:21;15.60;99.90
15087;DHT22;7642;48.478;8.952;2022-08-16T05:14:47;15.70;99.90
15087;DHT22;7642;48.478;8.952;2022-08-16T05:17:13;15.80;99.90
15087;DHT22;7642;48.478;8.952;2022-08-16T05:19:38;15.90;99.90
15087;DHT22;7642;48.478;8.952;2022-08-16T05:22:04;16.00;99.90
15087;DHT22;7642;48.478;8.952;2022-08-16T05:24:30;16.10;99.90
15087;DHT22;7642;48.478;8.952;2022-08-16T05:26:55;16.80;99.90
15087;DHT22;7642;48.478;8.952;2022-08-16T05:29:21;16.20;99.90
15087;DHT22;7642;48.478;8.952;2022-08-16T05:31:46;16.40;99.90
15087;DHT22;7642;48.478;8.952;2022-08-16T05:34:13;16.40;99.90
15087;DHT22;7642;48.478;8.952;2022-08-16T05:36:39;16.50;99.90
15087;DHT22;7642;48.478;8.952;2022-08-16T05:39:06;16.50;99.90
15087;DHT22;7642;48.478;8.952;2022-08-16T05:41:32;16.60;99.90
15087;DHT22;7642;48.478;8.952;2022-08-16T05:43:57;16.80;99.90
15087;DHT22;7642;48.478;8.952;2022-08-16T05:46:25;16.80;99.90
15087;DHT22;7642;48.478;8.952;2022-08-16T05:48:51;16.90;99.90
15087;DHT22;7642;48.478;8.952;2022-08-16T05:51:17;16.90;99.90
15087;DHT22;7642;48.478;8.952;2022-08-16T05:53:44;16.90;99.90
15087;DHT22;7642;48.478;8.952;2022-08-16T05:56:10;17.00;99.90
15087;DHT22;7642;48.478;8.952;2022-08-16T05:58:36;17.00;99.90
15087;DHT22;7642;48.478;8.952;2022-08-16T06:01:03;17.60;99.90
15087;DHT22;7642;48.478;8.952;2022-08-16T06:03:28;17.30;99.90
15087;DHT22;7642;48.478;8.952;2022-08-16T06:05:54;17.30;99.90
15087;DHT22;7642;48.478;8.952;2022-08-16T06:08:20;17.30;99.90
15087;DHT22;7642;48.478;8.952;2022-08-16T06:10:45;17.50;99.90
15087;DHT22;7642;48.478;8.952;2022-08-16T06:13:11;17.50;99.90
15087;DHT22;7642;48.478;8.952;2022-08-16T06:15:37;17.60;99.90
15087;DHT22;7642;48.478;8.952;2022-08-16T06:18:02;17.70;99.90
15087;DHT22;7642;48.478;8.952;2022-08-16T06:20:28;17.70;99.90
15087;DHT22;7642;48.478;8.952;2022-08-16T06:22:55;18.10;99.90
15087;DHT22;7642;48.478;8.952;2022-08-16T06:25:22;18.60;99.90
15087;DHT22;7642;48.478;8.952;2022-08-16T06:27:48;18.10;99.90
15087;DHT22;7642;48.478;8.952;2022-08-16T06:30:13;18.10;99.90
15087;DHT22;7642;48.478;8.952;2022-08-16T06:32:39;18.80;99.90
15087;DHT22;7642;48.478;8.952;2022-08-16T06:35:06;18.50;99.90
15087;DHT22;7642;48.478;8.952;2022-08-16T06:37:32;18.70;99.90
15087;DHT22;7642;48.478;8.952;2022-08-16T06:39:57;19.50;99.90
15087;DHT22;7642;48.478;8.952;2022-08-16T06:42:23;18.90;99.90
15087;DHT22;7642;48.478;8.952;2022-08-16T06:44:49;19.10;99.90
15087;DHT22;7642;48.478;8.952;2022-08-16T06:47:15;19.00;99.90
15087;DHT22;7642;48.478;8.952;2022-08-16T06:49:40;19.10;99.90
15087;DHT22;7642;48.478;8.952;2022-08-16T06:52:06;19.20;99.90
15087;DHT22;7642;48.478;8.952;2022-08-16T06:54:34;19.30;99.90
15087;DHT22;7642;48.478;8.952;2022-08-16T06:57:00;19.30;99.90
15087;DHT22;7642;48.478;8.952;2022-08-16T06:59:26;19.50;99.90
15087;DHT22;7642;48.478;8.952;2022-08-16T07:01:51;19.80;99.90
15087;DHT22;7642;48.478;8.952;2022-08-16T07:04:18;20.00;99.90
15087;DHT22;7642;48.478;8.952;2022-08-16T07:06:44;20.10;99.90
15087;DHT22;7642;48.478;8.952;2022-08-16T07:09:13;20.20;99.90
15087;DHT22;7642;48.478;8.952;2022-08-16T07:11:40;20.30;99.90
15087;DHT22;7642;48.478;8.952;2022-08-16T07:14:06;20.40;99.90
15087;DHT22;7642;48.478;8.952;2022-08-16T07:16:32;20.50;99.90
15087;DHT22;7642;48.478;8.952;2022-08-16T07:18:58;20.70;99.90
15087;DHT22;7642;48.478;8.952;2022-08-16T07:21:24;21.00;99.90
15087;DHT22;7642;48.478;8.952;2022-08-16T07:23:50;21.00;99.90
15087;DHT22;7642;48.478;8.952;2022-08-16T07:26:23;21.20;99.90
15087;DHT22;7642;48.478;8.952;2022-08-16T07:28:49;21.10;99.90
15087;DHT22;7642;48.478;8.952;2022-08-16T07:31:15;20.90;99.90
15087;DHT22;7642;48.478;8.952;2022-08-16T07:33:41;21.20;99.90
15087;DHT22;7642;48.478;8.952;2022-08-16T07:36:08;21.50;99.90
15087;DHT22;7642;48.478;8.952;2022-08-16T07:38:34;21.70;99.90
15087;DHT22;7642;48.478;8.952;2022-08-16T07:41:00;21.70;99.90
15087;DHT22;7642;48.478;8.952;2022-08-16T07:43:27;21.80;99.90
15087;DHT22;7642;48.478;8.952;2022-08-16T07:45:53;21.90;99.90
15087;DHT22;7642;48.478;8.952;2022-08-16T07:48:19;22.00;99.90
15087;DHT22;7642;48.478;8.952;2022-08-16T07:50:45;22.30;99.90
15087;DHT22;7642;48.478;8.952;2022-08-16T07:53:11;22.50;99.90
15087;DHT22;7642;48.478;8.952;2022-08-16T07:55:37;18.60;99.90
15087;DHT22;7642;48.478;8.952;2022-08-16T07:58:03;22.70;99.90
15087;DHT22;7642;48.478;8.952;2022-08-16T08:00:30;22.70;99.90
15087;DHT22;7642;48.478;8.952;2022-08-16T08:02:56;23.00;99.90
15087;DHT22;7642;48.478;8.952;2022-08-16T08:05:23;23.30;99.90
15087;DHT22;7642;48.478;8.952;2022-08-16T08:07:49;23.10;99.90
15087;DHT22;7642;48.478;8.952;2022-08-16T08:10:15;23.30;99.90
15087;DHT22;7642;48.478;8.952;2022-08-16T08:12:42;23.60;99.90
15087;DHT22;7642;48.478;8.952;2022-08-16T08:15:10;23.70;99.90
15087;DHT22;7642;48.478;8.952;2022-08-16T08:17:37;23.60;99.90
15087;DHT22;7642;48.478;8.952;2022-08-16T08:20:05;23.50;99.90
15087;DHT22;7642;48.478;8.952;2022-08-16T08:22:31;23.70;99.90
15087;DHT22;7642;48.478;8.952;2022-08-16T08:24:57;24.10;99.90
15087;DHT22;7642;48.478;8.952;2022-08-16T08:27:23;24.50;99.90
15087;DHT22;7642;48.478;8.952;2022-08-16T08:29:49;24.40;99.90
15087;DHT22;7642;48.478;8.952;2022-08-16T08:32:15;23.90;99.90
15087;DHT22;7642;48.478;8.952;2022-08-16T08:34:40;24.10;99.90
15087;DHT22;7642;48.478;8.952;2022-08-16T08:37:06;24.50;99.90
15087;DHT22;7642;48.478;8.952;2022-08-16T08:39:32;24.50;99.90
15087;DHT22;7642;48.478;8.952;2022-08-16T08:41:59;24.00;99.90
15087;DHT22;7642;48.478;8.952;2022-08-16T08:44:26;23.70;99.90
15087;DHT22;7642;48.478;8.952;2022-08-16T08:46:52;23.90;99.90
15087;DHT22;7642;48.478;8.952;2022-08-16T08:49:22;24.10;99.90
15087;DHT22;7642;48.478;8.952;2022-08-16T08:51:48;24.30;99.90
15087;DHT22;7642;48.478;8.952;2022-08-16T08:54:13;24.60;99.90
15087;DHT22;7642;48.478;8.952;2022-08-16T08:56:39;24.80;99.90
15087;DHT22;7642;48.478;8.952;2022-08-16T08:59:06;25.20;99.90
15087;DHT22;7642;48.478;8.952;2022-08-16T09:01:34;25.30;99.90
15087;DHT22;7642;48.478;8.952;2022-08-16T09:04:00;25.70;99.90
15087;DHT22;7642;48.478;8.952;2022-08-16T09:06:28;26.00;99.90
15087;DHT22;7642;48.478;8.952;2022-08-16T09:08:55;26.30;99.90
15087;DHT22;7642;48.478;8.952;2022-08-16T09:11:21;26.60;99.30
15087;DHT22;7642;48.478;8.952;2022-08-16T09:13:47;26.50;99.60
15087;DHT22;7642;48.478;8.952;2022-08-16T09:16:13;26.10;99.90
15087;DHT22;7642;48.478;8.952;2022-08-16T09:18:40;25.90;99.90
15087;DHT22;7642;48.478;8.952;2022-08-16T09:21:06;25.80;99.90
15087;DHT22;7642;48.478;8.952;2022-08-16T09:23:33;26.00;99.90
15087;DHT22;7642;48.478;8.952;2022-08-16T09:26:01;26.20;99.40
15087;DHT22;7642;48.478;8.952;2022-08-16T09:28:26;26.40;99.90
15087;DHT22;7642;48.478;8.952;2022-08-16T09:30:53;26.60;99.20
15087;DHT22;7642;48.478;8.952;2022-08-16T09:33:19;26.50;98.90
15087;DHT22;7642;48.478;8.952;2022-08-16T09:35:45;26.30;98.20
15087;DHT22;7642;48.478;8.952;2022-08-16T09:38:12;26.30;98.30
15087;DHT22;7642;48.478;8.952;2022-08-16T09:40:40;26.60;98.00
15087;DHT22;7642;48.478;8.952;2022-08-16T09:43:07;27.10;98.00
15087;DHT22;7642;48.478;8.952;2022-08-16T09:45:33;27.50;98.30
15087;DHT22;7642;48.478;8.952;2022-08-16T09:48:05;27.70;96.90
15087;DHT22;7642;48.478;8.952;2022-08-16T09:50:30;27.40;95.50
15087;DHT22;7642;48.478;8.952;2022-08-16T09:52:56;27.00;95.20
15087;DHT22;7642;48.478;8.952;2022-08-16T09:55:22;26.90;95.20
15087;DHT22;7642;48.478;8.952;2022-08-16T09:57:48;27.20;95.10
15087;DHT22;7642;48.478;8.952;2022-08-16T10:00:13;27.40;94.20
15087;DHT22;7642;48.478;8.952;2022-08-16T10:02:39;27.50;93.80
15087;DHT22;7642;48.478;8.952;2022-08-16T10:05:07;27.60;93.60
15087;DHT22;7642;48.478;8.952;2022-08-16T10:07:33;27.10;94.30
15087;DHT22;7642;48.478;8.952;2022-08-16T10:09:58;26.80;94.70
15087;DHT22;7642;48.478;8.952;2022-08-16T10:12:25;27.20;94.80
15087;DHT22;7642;48.478;8.952;2022-08-16T10:15:20;27.30;94.40
15087;DHT22;7642;48.478;8.952;2022-08-16T10:17:49;27.20;94.60
15087;DHT22;7642;48.478;8.952;2022-08-16T10:20:15;27.70;94.20
15087;DHT22;7642;48.478;8.952;2022-08-16T10:22:41;27.70;94.20
15087;DHT22;7642;48.478;8.952;2022-08-16T10:25:07;27.60;93.90
15087;DHT22;7642;48.478;8.952;2022-08-16T10:27:33;27.50;94.10
15087;DHT22;7642;48.478;8.952;2022-08-16T10:30:04;27.80;94.20
15087;DHT22;7642;48.478;8.952;2022-08-16T10:32:30;28.20;94.20
15087;DHT22;7642;48.478;8.952;2022-08-16T10:34:56;28.70;93.50
15087;DHT22;7642;48.478;8.952;2022-08-16T10:37:22;28.80;94.00
15087;DHT22;7642;48.478;8.952;2022-08-16T10:39:48;28.70;91.90
15087;DHT22;7642;48.478;8.952;2022-08-16T10:42:13;28.40;92.00
15087;DHT22;7642;48.478;8.952;2022-08-16T10:44:42;28.40;91.50
15087;DHT22;7642;48.478;8.952;2022-08-16T10:47:08;28.60;91.50
15087;DHT22;7642;48.478;8.952;2022-08-16T10:49:34;28.30;92.00
15087;DHT22;7642;48.478;8.952;2022-08-16T10:52:01;28.60;91.90
15087;DHT22;7642;48.478;8.952;2022-08-16T10:54:26;28.80;90.60
15087;DHT22;7642;48.478;8.952;2022-08-16T10:56:52;28.30;89.60
15087;DHT22;7642;48.478;8.952;2022-08-16T10:59:20;28.60;91.70
15087;DHT22;7642;48.478;8.952;2022-08-16T11:01:46;29.20;90.90
15087;DHT22;7642;48.478;8.952;2022-08-16T11:04:11;29.80;90.60
15087;DHT22;7642;48.478;8.952;2022-08-16T11:06:40;29.50;87.40
15087;DHT22;7642;48.478;8.952;2022-08-16T11:09:05;29.30;89.00
15087;DHT22;7642;48.478;8.952;2022-08-16T11:11:31;29.70;90.20
15087;DHT22;7642;48.478;8.952;2022-08-16T11:13:57;29.90;88.90
15087;DHT22;7642;48.478;8.952;2022-08-16T11:16:22;30.30;87.70
15087;DHT22;7642;48.478;8.952;2022-08-16T11:18:48;30.50;85.80
15087;DHT22;7642;48.478;8.952;2022-08-16T11:21:14;30.50;86.40
15087;DHT22;7642;48.478;8.952;2022-08-16T11:23:40;30.60;85.20
15087;DHT22;7642;48.478;8.952;2022-08-16T11:26:07;30.70;88.40
15087;DHT22;7642;48.478;8.952;2022-08-16T11:28:33;30.50;83.10
15087;DHT22;7642;48.478;8.952;2022-08-16T11:31:00;30.50;84.80
15087;DHT22;7642;48.478;8.952;2022-08-16T11:33:26;30.60;82.70
15087;DHT22;7642;48.478;8.952;2022-08-16T11:35:51;30.20;85.00
15087;DHT22;7642;48.478;8.952;2022-08-16T11:38:20;30.20;85.50
15087;DHT22;7642;48.478;8.952;2022-08-16T11:40:57;30.50;87.40
15087;DHT22;7642;48.478;8.952;2022-08-16T11:43:31;30.50;87.70
15087;DHT22;7642;48.478;8.952;2022-08-16T11:46:00;30.40;83.80
15087;DHT22;7642;48.478;8.952;2022-08-16T11:48:28;30.50;84.00
15087;DHT22;7642;48.478;8.952;2022-08-16T11:50:55;30.40;83.30
15087;DHT22;7642;48.478;8.952;2022-08-16T11:53:22;30.30;83.80
15087;DHT22;7642;48.478;8.952;2022-08-16T11:55:50;30.10;83.70
15087;DHT22;7642;48.478;8.952;2022-08-16T11:58:17;30.20;83.70
15087;DHT22;7642;48.478;8.952;2022-08-16T12:00:44;30.30;88.80
15087;DHT22;7642;48.478;8.952;2022-08-16T12:03:11;30.50;83.00
15087;DHT22;7642;48.478;8.952;2022-08-16T12:05:39;29.70;83.50
15087;DHT22;7642;48.478;8.952;2022-08-16T12:08:07;29.50;87.40
15087;DHT22;7642;48.478;8.952;2022-08-16T12:10:36;29.90;87.30
15087;DHT22;7642;48.478;8.952;2022-08-16T12:13:04;30.10;84.50
15087;DHT22;7642;48.478;8.952;2022-08-16T12:15:29;30.00;83.80
15087;DHT22;7642;48.478;8.952;2022-08-16T12:17:55;29.60;84.10
15087;DHT22;7642;48.478;8.952;2022-08-16T12:20:26;29.80;83.00
15087;DHT22;7642;48.478;8.952;2022-08-16T12:22:53;30.30;82.20
15087;DHT22;7642;48.478;8.952;2022-08-16T12:25:21;30.70;81.50
15087;DHT22;7642;48.478;8.952;2022-08-16T12:27:48;31.20;83.10
15087;DHT22;7642;48.478;8.952;2022-08-16T12:30:17;31.00;79.10
15087;DHT22;7642;48.478;8.952;2022-08-16T12:32:44;30.90;80.50
15087;DHT22;7642;48.478;8.952;2022-08-16T12:35:13;30.70;81.20
15087;DHT22;7642;48.478;8.952;2022-08-16T12:37:41;31.00;79.10
15087;DHT22;7642;48.478;8.952;2022-08-16T12:40:08;30.90;79.70
15087;DHT22;7642;48.478;8.952;2022-08-16T12:42:34;30.70;79.10
15087;DHT22;7642;48.478;8.952;2022-08-16T12:45:02;30.40;79.30
15087;DHT22;7642;48.478;8.952;2022-08-16T12:47:28;30.80;80.00
15087;DHT22;7642;48.478;8.952;2022-08-16T12:50:12;29.90;78.40
15087;DHT22;7642;48.478;8.952;2022-08-16T12:52:39;30.50;81.60
15087;DHT22;7642;48.478;8.952;2022-08-16T12:55:05;30.30;79.90
15087;DHT22;7642;48.478;8.952;2022-08-16T12:57:31;30.30;80.10
15087;DHT22;7642;48.478;8.952;2022-08-16T12:59:57;30.20;81.70
15087;DHT22;7642;48.478;8.952;2022-08-16T13:02:24;30.10;81.50
15087;DHT22;7642;48.478;8.952;2022-08-16T13:04:50;30.10;81.90
15087;DHT22;7642;48.478;8.952;2022-08-16T13:07:16;30.30;83.30
15087;DHT22;7642;48.478;8.952;2022-08-16T13:09:42;30.80;79.50
15087;DHT22;7642;48.478;8.952;2022-08-16T13:12:18;30.80;80.90
15087;DHT22;7642;48.478;8.952;2022-08-16T13:14:49;31.60;78.40
15087;DHT22;7642;48.478;8.952;2022-08-16T13:17:17;31.80;76.30
15087;DHT22;7642;48.478;8.952;2022-08-16T13:19:45;32.10;75.30
15087;DHT22;7642;48.478;8.952;2022-08-16T13:22:11;31.00;75.90
15087;DHT22;7642;48.478;8.952;2022-08-16T13:24:36;30.60;78.90
15087;DHT22;7642;48.478;8.952;2022-08-16T13:27:02;30.60;79.50
15087;DHT22;7642;48.478;8.952;2022-08-16T13:29:27;31.00;78.70
15087;DHT22;7642;48.478;8.952;2022-08-16T13:31:53;31.20;78.50
15087;DHT22;7642;48.478;8.952;2022-08-16T13:34:18;31.10;77.60
15087;DHT22;7642;48.478;8.952;2022-08-16T13:36:44;31.80;79.00
15087;DHT22;7642;48.478;8.952;2022-08-16T13:39:10;32.70;76.30
15087;DHT22;7642;48.478;8.952;2022-08-16T13:41:35;33.00;74.10
15087;DHT22;7642;48.478;8.952;2022-08-16T13:44:01;32.80;71.40
15087;DHT22;7642;48.478;8.952;2022-08-16T13:46:28;32.40;72.00
15087;DHT22;7642;48.478;8.952;2022-08-16T13:48:55;32.50;73.50
15087;DHT22;7642;48.478;8.952;2022-08-16T13:51:21;33.00;72.00
15087;DHT22;7642;48.478;8.952;2022-08-16T13:53:53;33.20;71.50
15087;DHT22;7642;48.478;8.952;2022-08-16T13:56:19;33.70;71.20
15087;DHT22;7642;48.478;8.952;2022-08-16T13:58:46;33.30;69.20
15087;DHT22;7642;48.478;8.952;2022-08-16T14:01:12;32.70;70.90
15087;DHT22;7642;48.478;8.952;2022-08-16T14:03:38;32.30;71.80
15087;DHT22;7642;48.478;8.952;2022-08-16T14:06:05;32.40;73.30
15087;DHT22;7642;48.478;8.952;2022-08-16T14:08:31;32.80;71.70
15087;DHT22;7642;48.478;8.952;2022-08-16T14:10:57;32.50;71.00
15087;DHT22;7642;48.478;8.952;2022-08-16T14:13:22;32.20;71.30
15087;DHT22;7642;48.478;8.952;2022-08-16T14:15:49;32.70;72.30
15087;DHT22;7642;48.478;8.952;2022-08-16T14:18:14;32.10;71.80
15087;DHT22;7642;48.478;8.952;2022-08-16T14:20:40;31.40;72.70
15087;DHT22;7642;48.478;8.952;2022-08-16T14:23:06;31.00;73.10
15087;DHT22;7642;48.478;8.952;2022-08-16T14:25:32;31.00;74.50
15087;DHT22;7642;48.478;8.952;2022-08-16T14:27:58;30.80;74.00
15087;DHT22;7642;48.478;8.952;2022-08-16T14:30:24;31.30;74.20
15087;DHT22;7642;48.478;8.952;2022-08-16T14:32:50;31.00;73.90
15087;DHT22;7642;48.478;8.952;2022-08-16T14:35:21;30.50;74.00
15087;DHT22;7642;48.478;8.952;2022-08-16T14:37:47;30.50;73.80
15087;DHT22;7642;48.478;8.952;2022-08-16T14:40:15;30.50;74.20
15087;DHT22;7642;48.478;8.952;2022-08-16T14:42:41;30.50;74.70
15087;DHT22;7642;48.478;8.952;2022-08-16T14:45:08;30.90;75.10
15087;DHT22;7642;48.478;8.952;2022-08-16T14:47:35;31.30;74.70
15087;DHT22;7642;48.478;8.952;2022-08-16T14:50:04;31.60;73.60
15087;DHT22;7642;48.478;8.952;2022-08-16T14:52:30;31.60;73.10
15087;DHT22;7642;48.478;8.952;2022-08-16T14:54:55;31.60;72.60
15087;DHT22;7642;48.478;8.952;2022-08-16T14:57:21;31.40;73.50
15087;DHT22;7642;48.478;8.952;2022-08-16T14:59:46;31.20;77.20
15087;DHT22;7642;48.478;8.952;2022-08-16T15:02:23;31.00;73.10
15087;DHT22;7642;48.478;8.952;2022-08-16T15:04:49;31.20;73.70
15087;DHT22;7642;48.478;8.952;2022-08-16T15:07:17;31.90;73.20
15087;DHT22;7642;48.478;8.952;2022-08-16T15:09:46;32.20;72.10
15087;DHT22;7642;48.478;8.952;2022-08-16T15:12:18;31.90;73.40
15087;DHT22;7642;48.478;8.952;2022-08-16T15:14:45;31.60;74.90
15087;DHT22;7642;48.478;8.952;2022-08-16T15:17:13;31.30;73.90
15087;DHT22;7642;48.478;8.952;2022-08-16T15:19:39;31.30;74.50
15087;DHT22;7642;48.478;8.952;2022-08-16T15:22:12;31.40;74.80
15087;DHT22;7642;48.478;8.952;2022-08-16T15:24:40;31.30;72.80
15087;DHT22;7642;48.478;8.952;2022-08-16T15:27:06;31.30;72.80
15087;DHT22;7642;48.478;8.952;2022-08-16T15:29:31;31.00;73.60
15087;DHT22;7642;48.478;8.952;2022-08-16T15:31:57;30.70;73.90
15087;DHT22;7642;48.478;8.952;2022-08-16T15:34:23;30.80;75.20
15087;DHT22;7642;48.478;8.952;2022-08-16T15:36:50;30.90;75.80
15087;DHT22;7642;48.478;8.952;2022-08-16T15:39:16;31.10;73.20
15087;DHT22;7642;48.478;8.952;2022-08-16T15:44:14;31.50;73.00
15087;DHT22;7642;48.478;8.952;2022-08-16T15:46:40;31.80;73.90
15087;DHT22;7642;48.478;8.952;2022-08-16T15:49:06;32.10;71.70
15087;DHT22;7642;48.478;8.952;2022-08-16T15:51:32;32.00;70.30